sensor_id;sensor_type;location;lat;lon;timestamp;temperature;humidity
68235;DHT22;55052;52.056;5.296;2023-04-28T00:01:42;11.40;53.20
68235;DHT22;55052;52.056;5.296;2023-04-28T00:04:10;11.40;53.30
68235;DHT22;55052;52.056;5.296;2023-04-28T00:06:37;11.40;53.40
68235;DHT22;55052;52.056;5.296;2023-04-28T00:09:06;11.30;53.50
68235;DHT22;55052;52.056;5.296;2023-04-28T00:11:37;11.30;53.50
68235;DHT22;55052;52.056;5.296;2023-04-28T00:14:04;11.30;53.40
68235;DHT22;55052;52.056;5.296;2023-04-28T00:16:31;11.30;53.40
68235;DHT22;55052;52.056;5.296;2023-04-28T00:18:58;11.30;53.50
68235;DHT22;55052;52.056;5.296;2023-04-28T00:21:25;11.30;53.50
68235;DHT22;55052;52.056;5.296;2023-04-28T00:23:54;11.30;53.60
68235;DHT22;55052;52.056;5.296;2023-04-28T00:26:21;11.30;53.70
68235;DHT22;55052;52.056;5.296;2023-04-28T00:28:48;11.30;53.60
68235;DHT22;55052;52.056;5.296;2023-04-28T00:31:16;11.30;53.80
68235;DHT22;55052;52.056;5.296;2023-04-28T00:33:43;11.30;53.80
68235;DHT22;55052;52.056;5.296;2023-04-28T00:36:10;11.20;53.80
68235;DHT22;55052;52.056;5.296;2023-04-28T00:38:37;11.20;53.70
68235;DHT22;55052;52.056;5.296;2023-04-28T00:41:04;11.20;53.80
68235;DHT22;55052;52.056;5.296;2023-04-28T00:43:49;11.20;54.00
68235;DHT22;55052;52.056;5.296;2023-04-28T00:46:32;11.20;54.00
68235;DHT22;55052;52.056;5.296;2023-04-28T00:48:59;11.20;54.20
68235;DHT22;55052;52.056;5.296;2023-04-28T00:51:27;11.20;54.20
68235;DHT22;55052;52.056;5.296;2023-04-28T00:53:55;11.20;54.20
68235;DHT22;55052;52.056;5.296;2023-04-28T00:56:22;11.20;54.40
68235;DHT22;55052;52.056;5.296;2023-04-28T00:58:49;11.20;54.50
68235;DHT22;55052;52.056;5.296;2023-04-28T01:01:16;11.20;54.70
68235;DHT22;55052;52.056;5.296;2023-04-28T01:03:44;11.20;54.80
68235;DHT22;55052;52.056;5.296;2023-04-28T01:06:12;11.20;55.00
68235;DHT22;55052;52.056;5.296;2023-04-28T01:08:39;11.10;55.00
68235;DHT22;55052;52.056;5.296;2023-04-28T01:11:08;11.10;55.10
68235;DHT22;55052;52.056;5.296;2023-04-28T01:13:40;11.20;55.20
68235;DHT22;55052;52.056;5.296;2023-04-28T01:16:06;11.10;55.20
68235;DHT22;55052;52.056;5.296;2023-04-28T01:18:33;11.10;55.10
68235;DHT22;55052;52.056;5.296;2023-04-28T01:21:00;11.10;55.10
68235;DHT22;55052;52.056;5.296;2023-04-28T01:23:29;11.10;55.10
68235;DHT22;55052;52.056;5.296;2023-04-28T01:25:56;11.10;55.00
68235;DHT22;55052;52.056;5.296;2023-04-28T01:28:24;11.10;55.10
68235;DHT22;55052;52.056;5.296;2023-04-28T01:30:50;11.10;55.10
68235;DHT22;55052;52.056;5.296;2023-04-28T01:33:17;11.10;55.10
68235;DHT22;55052;52.056;5.296;2023-04-28T01:35:44;11.10;55.20
68235;DHT22;55052;52.056;5.296;2023-04-28T01:38:11;11.10;56.20
68235;DHT22;55052;52.056;5.296;2023-04-28T01:40:38;11.10;55.30
68235;DHT22;55052;52.056;5.296;2023-04-28T01:43:05;11.10;55.30
68235;DHT22;55052;52.056;5.296;2023-04-28T01:45:32;11.10;55.50
68235;DHT22;55052;52.056;5.296;2023-04-28T01:47:59;11.10;55.60
68235;DHT22;55052;52.056;5.296;2023-04-28T01:50:26;11.10;55.60
68235;DHT22;55052;52.056;5.296;2023-04-28T01:52:53;11.10;55.70
68235;DHT22;55052;52.056;5.296;2023-04-28T01:55:19;11.10;55.60
68235;DHT22;55052;52.056;5.296;2023-04-28T01:57:47;11.10;55.60
68235;DHT22;55052;52.056;5.296;2023-04-28T02:00:14;11.10;55.60
68235;DHT22;55052;52.056;5.296;2023-04-28T02:02:41;11.00;55.60
68235;DHT22;55052;52.056;5.296;2023-04-28T02:05:08;11.00;55.70
68235;DHT22;55052;52.056;5.296;2023-04-28T02:07:35;11.00;55.70
68235;DHT22;55052;52.056;5.296;2023-04-28T02:10:02;11.00;55.80
68235;DHT22;55052;52.056;5.296;2023-04-28T02:12:29;11.00;55.80
68235;DHT22;55052;52.056;5.296;2023-04-28T02:14:55;11.00;55.90
68235;DHT22;55052;52.056;5.296;2023-04-28T02:17:23;11.00;55.90
68235;DHT22;55052;52.056;5.296;2023-04-28T02:19:58;11.00;55.90
68235;DHT22;55052;52.056;5.296;2023-04-28T02:22:25;11.00;55.90
68235;DHT22;55052;52.056;5.296;2023-04-28T02:24:52;11.00;56.00
68235;DHT22;55052;52.056;5.296;2023-04-28T02:27:20;11.00;56.00
68235;DHT22;55052;52.056;5.296;2023-04-28T02:29:47;11.00;56.10
68235;DHT22;55052;52.056;5.296;2023-04-28T02:32:14;11.00;56.30
68235;DHT22;55052;52.056;5.296;2023-04-28T02:34:41;11.00;56.30
68235;DHT22;55052;52.056;5.296;2023-04-28T02:37:08;11.00;56.30
68235;DHT22;55052;52.056;5.296;2023-04-28T02:39:35;11.00;56.40
68235;DHT22;55052;52.056;5.296;2023-04-28T02:42:01;11.00;56.40
68235;DHT22;55052;52.056;5.296;2023-04-28T02:44:31;11.00;56.60
68235;DHT22;55052;52.056;5.296;2023-04-28T02:46:58;10.90;56.50
68235;DHT22;55052;52.056;5.296;2023-04-28T02:49:24;10.90;56.50
68235;DHT22;55052;52.056;5.296;2023-04-28T02:51:51;10.90;56.60
68235;DHT22;55052;52.056;5.296;2023-04-28T02:54:18;10.90;56.60
68235;DHT22;55052;52.056;5.296;2023-04-28T02:56:57;10.90;56.60
68235;DHT22;55052;52.056;5.296;2023-04-28T02:59:24;10.90;56.70
68235;DHT22;55052;52.056;5.296;2023-04-28T03:01:51;10.90;56.70
68235;DHT22;55052;52.056;5.296;2023-04-28T03:04:18;10.90;56.70
68235;DHT22;55052;52.056;5.296;2023-04-28T03:06:46;10.90;56.80
68235;DHT22;55052;52.056;5.296;2023-04-28T03:09:13;10.90;56.90
68235;DHT22;55052;52.056;5.296;2023-04-28T03:11:40;10.90;56.80
68235;DHT22;55052;52.056;5.296;2023-04-28T03:14:07;10.80;56.90
68235;DHT22;55052;52.056;5.296;2023-04-28T03:16:34;10.80;57.00
68235;DHT22;55052;52.056;5.296;2023-04-28T03:19:01;10.80;57.00
68235;DHT22;55052;52.056;5.296;2023-04-28T03:21:29;10.80;57.00
68235;DHT22;55052;52.056;5.296;2023-04-28T03:23:56;10.80;57.10
68235;DHT22;55052;52.056;5.296;2023-04-28T03:26:22;10.80;57.10
68235;DHT22;55052;52.056;5.296;2023-04-28T03:28:49;10.80;57.20
68235;DHT22;55052;52.056;5.296;2023-04-28T03:31:16;10.80;57.30
68235;DHT22;55052;52.056;5.296;2023-04-28T03:33:43;10.80;57.50
68235;DHT22;55052;52.056;5.296;2023-04-28T03:36:12;10.80;57.50
68235;DHT22;55052;52.056;5.296;2023-04-28T03:38:42;10.80;57.70
68235;DHT22;55052;52.056;5.296;2023-04-28T03:41:09;10.80;57.60
68235;DHT22;55052;52.056;5.296;2023-04-28T03:43:36;10.80;57.60
68235;DHT22;55052;52.056;5.296;2023-04-28T03:46:03;10.80;57.70
68235;DHT22;55052;52.056;5.296;2023-04-28T03:48:30;10.80;57.80
68235;DHT22;55052;52.056;5.296;2023-04-28T03:50:57;10.80;57.90
68235;DHT22;55052;52.056;5.296;2023-04-28T03:53:24;10.80;58.00
68235;DHT22;55052;52.056;5.296;2023-04-28T03:55:51;10.80;58.00
68235;DHT22;55052;52.056;5.296;2023-04-28T03:58:18;10.80;58.10
68235;DHT22;55052;52.056;5.296;2023-04-28T04:00:45;10.80;58.20
68235;DHT22;55052;52.056;5.296;2023-04-28T04:03:12;10.80;58.20
68235;DHT22;55052;52.056;5.296;2023-04-28T04:05:39;10.80;58.20
68235;DHT22;55052;52.056;5.296;2023-04-28T04:08:07;10.80;58.20
68235;DHT22;55052;52.056;5.296;2023-04-28T04:10:34;10.80;58.30
68235;DHT22;55052;52.056;5.296;2023-04-28T04:13:00;10.80;58.40
68235;DHT22;55052;52.056;5.296;2023-04-28T04:15:27;10.80;58.40
68235;DHT22;55052;52.056;5.296;2023-04-28T04:17:54;10.80;58.50
68235;DHT22;55052;52.056;5.296;2023-04-28T04:20:22;10.80;58.70
68235;DHT22;55052;52.056;5.296;2023-04-28T04:22:48;10.80;58.70
68235;DHT22;55052;52.056;5.296;2023-04-28T04:25:15;10.80;58.80
68235;DHT22;55052;52.056;5.296;2023-04-28T04:27:42;10.80;58.90
68235;DHT22;55052;52.056;5.296;2023-04-28T04:30:10;10.70;58.90
68235;DHT22;55052;52.056;5.296;2023-04-28T04:32:37;10.80;59.10
68235;DHT22;55052;52.056;5.296;2023-04-28T04:35:04;10.80;59.10
68235;DHT22;55052;52.056;5.296;2023-04-28T04:37:32;10.80;59.10
68235;DHT22;55052;52.056;5.296;2023-04-28T04:39:59;10.80;59.20
68235;DHT22;55052;52.056;5.296;2023-04-28T04:42:26;10.80;59.40
68235;DHT22;55052;52.056;5.296;2023-04-28T04:44:53;10.80;60.50
68235;DHT22;55052;52.056;5.296;2023-04-28T04:47:20;10.80;59.80
68235;DHT22;55052;52.056;5.296;2023-04-28T04:49:47;10.80;60.10
68235;DHT22;55052;52.056;5.296;2023-04-28T04:52:15;10.80;60.10
68235;DHT22;55052;52.056;5.296;2023-04-28T04:54:42;10.80;60.30
68235;DHT22;55052;52.056;5.296;2023-04-28T04:57:10;10.90;60.40
68235;DHT22;55052;52.056;5.296;2023-04-28T04:59:37;10.90;60.70
68235;DHT22;55052;52.056;5.296;2023-04-28T05:02:04;10.90;60.90
68235;DHT22;55052;52.056;5.296;2023-04-28T05:04:31;10.90;61.00
68235;DHT22;55052;52.056;5.296;2023-04-28T05:06:58;10.90;61.10
68235;DHT22;55052;52.056;5.296;2023-04-28T05:09:25;10.90;61.30
68235;DHT22;55052;52.056;5.296;2023-04-28T05:11:52;10.90;61.50
68235;DHT22;55052;52.056;5.296;2023-04-28T05:14:19;10.90;61.50
68235;DHT22;55052;52.056;5.296;2023-04-28T05:16:46;10.90;61.60
68235;DHT22;55052;52.056;5.296;2023-04-28T05:19:13;11.00;61.90
68235;DHT22;55052;52.056;5.296;2023-04-28T05:21:40;11.00;62.00
68235;DHT22;55052;52.056;5.296;2023-04-28T05:24:07;11.00;62.10
68235;DHT22;55052;52.056;5.296;2023-04-28T05:26:35;11.00;62.30
68235;DHT22;55052;52.056;5.296;2023-04-28T05:29:02;11.00;62.50
68235;DHT22;55052;52.056;5.296;2023-04-28T05:31:28;11.00;62.60
68235;DHT22;55052;52.056;5.296;2023-04-28T05:33:55;11.10;62.80
68235;DHT22;55052;52.056;5.296;2023-04-28T05:36:22;11.10;63.10
68235;DHT22;55052;52.056;5.296;2023-04-28T05:38:49;11.10;63.20
68235;DHT22;55052;52.056;5.296;2023-04-28T05:41:17;11.10;63.50
68235;DHT22;55052;52.056;5.296;2023-04-28T05:43:44;11.20;64.10
68235;DHT22;55052;52.056;5.296;2023-04-28T05:46:11;11.10;64.50
68235;DHT22;55052;52.056;5.296;2023-04-28T05:48:56;11.20;64.80
68235;DHT22;55052;52.056;5.296;2023-04-28T05:51:23;11.20;65.40
68235;DHT22;55052;52.056;5.296;2023-04-28T05:53:50;11.20;65.80
68235;DHT22;55052;52.056;5.296;2023-04-28T05:56:17;11.20;66.10
68235;DHT22;55052;52.056;5.296;2023-04-28T05:58:44;11.20;66.50
68235;DHT22;55052;52.056;5.296;2023-04-28T06:01:11;11.20;66.70
68235;DHT22;55052;52.056;5.296;2023-04-28T06:03:38;11.20;67.00
68235;DHT22;55052;52.056;5.296;2023-04-28T06:06:09;11.30;67.50
68235;DHT22;55052;52.056;5.296;2023-04-28T06:08:37;11.30;67.80
68235;DHT22;55052;52.056;5.296;2023-04-28T06:11:04;11.30;68.30
68235;DHT22;55052;52.056;5.296;2023-04-28T06:13:31;11.30;68.60
68235;DHT22;55052;52.056;5.296;2023-04-28T06:15:58;11.30;68.80
68235;DHT22;55052;52.056;5.296;2023-04-28T06:18:25;11.30;69.10
68235;DHT22;55052;52.056;5.296;2023-04-28T06:20:52;11.40;69.40
68235;DHT22;55052;52.056;5.296;2023-04-28T06:23:19;11.40;69.70
68235;DHT22;55052;52.056;5.296;2023-04-28T06:25:46;11.40;70.00
68235;DHT22;55052;52.056;5.296;2023-04-28T06:28:13;11.50;70.30
68235;DHT22;55052;52.056;5.296;2023-04-28T06:30:40;11.50;70.60
68235;DHT22;55052;52.056;5.296;2023-04-28T06:33:07;11.50;70.80
68235;DHT22;55052;52.056;5.296;2023-04-28T06:35:35;11.50;71.10
68235;DHT22;55052;52.056;5.296;2023-04-28T06:38:05;11.60;71.40
68235;DHT22;55052;52.056;5.296;2023-04-28T06:40:32;11.60;71.70
68235;DHT22;55052;52.056;5.296;2023-04-28T06:42:58;11.60;72.20
68235;DHT22;55052;52.056;5.296;2023-04-28T06:45:25;11.70;72.50
68235;DHT22;55052;52.056;5.296;2023-04-28T06:47:52;11.70;72.90
68235;DHT22;55052;52.056;5.296;2023-04-28T06:50:22;11.70;73.30
68235;DHT22;55052;52.056;5.296;2023-04-28T06:52:49;11.80;73.60
68235;DHT22;55052;52.056;5.296;2023-04-28T06:55:16;11.80;74.00
68235;DHT22;55052;52.056;5.296;2023-04-28T06:57:43;11.80;74.20
68235;DHT22;55052;52.056;5.296;2023-04-28T07:00:10;11.80;74.30
68235;DHT22;55052;52.056;5.296;2023-04-28T07:02:38;11.90;74.40
68235;DHT22;55052;52.056;5.296;2023-04-28T07:05:05;11.90;74.60
68235;DHT22;55052;52.056;5.296;2023-04-28T07:07:33;12.00;74.90
68235;DHT22;55052;52.056;5.296;2023-04-28T07:09:59;12.00;75.10
68235;DHT22;55052;52.056;5.296;2023-04-28T07:12:26;12.10;75.50
68235;DHT22;55052;52.056;5.296;2023-04-28T07:14:53;12.10;75.70
68235;DHT22;55052;52.056;5.296;2023-04-28T07:17:21;12.20;75.80
68235;DHT22;55052;52.056;5.296;2023-04-28T07:19:48;12.30;75.90
68235;DHT22;55052;52.056;5.296;2023-04-28T07:22:18;12.40;75.90
68235;DHT22;55052;52.056;5.296;2023-04-28T07:24:44;12.50;76.00
68235;DHT22;55052;52.056;5.296;2023-04-28T07:27:11;12.50;76.00
68235;DHT22;55052;52.056;5.296;2023-04-28T07:29:38;12.60;75.90
68235;DHT22;55052;52.056;5.296;2023-04-28T07:32:05;12.60;75.90
68235;DHT22;55052;52.056;5.296;2023-04-28T07:34:36;12.60;76.00
68235;DHT22;55052;52.056;5.296;2023-04-28T07:37:04;12.70;76.20
68235;DHT22;55052;52.056;5.296;2023-04-28T07:39:33;12.70;76.50
68235;DHT22;55052;52.056;5.296;2023-04-28T07:42:01;12.80;76.70
68235;DHT22;55052;52.056;5.296;2023-04-28T07:44:29;12.80;76.80
68235;DHT22;55052;52.056;5.296;2023-04-28T07:46:58;12.90;77.00
68235;DHT22;55052;52.056;5.296;2023-04-28T07:49:29;13.00;77.00
68235;DHT22;55052;52.056;5.296;2023-04-28T07:51:56;13.00;76.90
68235;DHT22;55052;52.056;5.296;2023-04-28T07:54:24;13.10;76.90
68235;DHT22;55052;52.056;5.296;2023-04-28T07:56:51;13.10;76.80
68235;DHT22;55052;52.056;5.296;2023-04-28T07:59:18;13.20;76.80
68235;DHT22;55052;52.056;5.296;2023-04-28T08:01:45;13.30;76.90
68235;DHT22;55052;52.056;5.296;2023-04-28T08:04:12;13.40;76.90
68235;DHT22;55052;52.056;5.296;2023-04-28T08:06:40;13.40;76.90
68235;DHT22;55052;52.056;5.296;2023-04-28T08:09:07;13.40;76.80
68235;DHT22;55052;52.056;5.296;2023-04-28T08:11:35;13.50;76.80
68235;DHT22;55052;52.056;5.296;2023-04-28T08:14:02;13.50;76.90
68235;DHT22;55052;52.056;5.296;2023-04-28T08:16:30;13.50;76.90
68235;DHT22;55052;52.056;5.296;2023-04-28T08:18:57;13.60;77.20
68235;DHT22;55052;52.056;5.296;2023-04-28T08:21:26;13.60;77.20
68235;DHT22;55052;52.056;5.296;2023-04-28T08:23:53;13.60;77.40
68235;DHT22;55052;52.056;5.296;2023-04-28T08:26:20;13.60;77.80
68235;DHT22;55052;52.056;5.296;2023-04-28T08:28:47;13.60;78.20
68235;DHT22;55052;52.056;5.296;2023-04-28T08:31:14;13.70;78.60
68235;DHT22;55052;52.056;5.296;2023-04-28T08:33:41;13.70;79.10
68235;DHT22;55052;52.056;5.296;2023-04-28T08:36:14;13.70;79.60
68235;DHT22;55052;52.056;5.296;2023-04-28T08:38:41;13.80;80.10
68235;DHT22;55052;52.056;5.296;2023-04-28T08:41:08;13.90;80.80
68235;DHT22;55052;52.056;5.296;2023-04-28T08:43:36;14.00;81.30
68235;DHT22;55052;52.056;5.296;2023-04-28T08:46:07;14.00;81.50
68235;DHT22;55052;52.056;5.296;2023-04-28T08:48:40;14.10;81.90
68235;DHT22;55052;52.056;5.296;2023-04-28T08:51:08;14.20;82.90
68235;DHT22;55052;52.056;5.296;2023-04-28T08:53:38;14.20;82.00
68235;DHT22;55052;52.056;5.296;2023-04-28T08:56:26;14.30;82.30
68235;DHT22;55052;52.056;5.296;2023-04-28T08:59:01;14.30;82.30
68235;DHT22;55052;52.056;5.296;2023-04-28T09:01:30;14.30;82.30
68235;DHT22;55052;52.056;5.296;2023-04-28T09:04:00;14.30;82.40
68235;DHT22;55052;52.056;5.296;2023-04-28T09:06:37;14.30;82.60
68235;DHT22;55052;52.056;5.296;2023-04-28T09:09:21;14.30;82.60
68235;DHT22;55052;52.056;5.296;2023-04-28T09:11:55;14.40;83.00
68235;DHT22;55052;52.056;5.296;2023-04-28T09:14:24;14.40;83.00
68235;DHT22;55052;52.056;5.296;2023-04-28T09:16:52;14.30;82.90
68235;DHT22;55052;52.056;5.296;2023-04-28T09:19:19;14.40;83.10
68235;DHT22;55052;52.056;5.296;2023-04-28T09:21:54;14.40;83.20
68235;DHT22;55052;52.056;5.296;2023-04-28T09:24:34;14.40;83.50
68235;DHT22;55052;52.056;5.296;2023-04-28T09:27:03;14.40;83.60
68235;DHT22;55052;52.056;5.296;2023-04-28T09:29:31;14.40;83.80
68235;DHT22;55052;52.056;5.296;2023-04-28T09:32:18;14.50;84.00
68235;DHT22;55052;52.056;5.296;2023-04-28T09:34:48;14.50;84.70
68235;DHT22;55052;52.056;5.296;2023-04-28T09:37:20;14.50;84.60
68235;DHT22;55052;52.056;5.296;2023-04-28T09:39:51;14.50;85.00
68235;DHT22;55052;52.056;5.296;2023-04-28T09:42:41;14.60;85.10
68235;DHT22;55052;52.056;5.296;2023-04-28T09:45:10;14.60;85.50
68235;DHT22;55052;52.056;5.296;2023-04-28T09:47:42;14.70;85.50
68235;DHT22;55052;52.056;5.296;2023-04-28T09:50:10;14.70;85.80
68235;DHT22;55052;52.056;5.296;2023-04-28T09:52:44;14.70;86.10
68235;DHT22;55052;52.056;5.296;2023-04-28T09:55:12;14.80;86.40
68235;DHT22;55052;52.056;5.296;2023-04-28T09:57:39;14.80;86.60
68235;DHT22;55052;52.056;5.296;2023-04-28T10:00:07;14.80;86.70
68235;DHT22;55052;52.056;5.296;2023-04-28T10:02:36;14.90;86.80
68235;DHT22;55052;52.056;5.296;2023-04-28T10:05:07;14.90;86.80
68235;DHT22;55052;52.056;5.296;2023-04-28T10:07:39;14.90;86.80
68235;DHT22;55052;52.056;5.296;2023-04-28T10:10:07;15.00;86.80
68235;DHT22;55052;52.056;5.296;2023-04-28T10:12:34;15.00;86.90
68235;DHT22;55052;52.056;5.296;2023-04-28T10:15:06;15.00;86.90
68235;DHT22;55052;52.056;5.296;2023-04-28T10:17:33;15.00;87.00
68235;DHT22;55052;52.056;5.296;2023-04-28T10:20:02;15.00;87.10
68235;DHT22;55052;52.056;5.296;2023-04-28T10:22:57;15.00;87.20
68235;DHT22;55052;52.056;5.296;2023-04-28T10:25:30;15.00;87.50
68235;DHT22;55052;52.056;5.296;2023-04-28T10:27:59;15.00;87.50
68235;DHT22;55052;52.056;5.296;2023-04-28T10:30:26;15.00;87.50
68235;DHT22;55052;52.056;5.296;2023-04-28T10:33:39;15.00;87.60
68235;DHT22;55052;52.056;5.296;2023-04-28T10:35:46;15.00;88.40
68235;DHT22;55052;52.056;5.296;2023-04-28T10:38:17;15.00;88.00
68235;DHT22;55052;52.056;5.296;2023-04-28T10:40:47;15.00;88.20
68235;DHT22;55052;52.056;5.296;2023-04-28T10:56:22;15.00;89.40
68235;DHT22;55052;52.056;5.296;2023-04-28T10:58:52;15.00;89.60
68235;DHT22;55052;52.056;5.296;2023-04-28T11:03:56;15.00;89.90
68235;DHT22;55052;52.056;5.296;2023-04-28T11:06:37;15.00;90.00
68235;DHT22;55052;52.056;5.296;2023-04-28T11:11:39;15.00;90.20
68235;DHT22;55052;52.056;5.296;2023-04-28T11:16:56;15.00;90.40
68235;DHT22;55052;52.056;5.296;2023-04-28T11:19:28;15.00;90.50
68235;DHT22;55052;52.056;5.296;2023-04-28T11:21:56;15.00;90.60
68235;DHT22;55052;52.056;5.296;2023-04-28T11:24:25;15.00;90.70
68235;DHT22;55052;52.056;5.296;2023-04-28T11:26:56;15.10;90.80
68235;DHT22;55052;52.056;5.296;2023-04-28T11:29:37;15.10;90.90
68235;DHT22;55052;52.056;5.296;2023-04-28T11:32:06;15.20;91.00
68235;DHT22;55052;52.056;5.296;2023-04-28T11:34:35;15.20;90.80
68235;DHT22;55052;52.056;5.296;2023-04-28T11:37:02;15.20;90.70
68235;DHT22;55052;52.056;5.296;2023-04-28T11:39:30;15.20;91.00
68235;DHT22;55052;52.056;5.296;2023-04-28T11:41:59;15.20;90.70
68235;DHT22;55052;52.056;5.296;2023-04-28T11:44:29;15.20;90.80
68235;DHT22;55052;52.056;5.296;2023-04-28T11:46:58;15.30;90.80
68235;DHT22;55052;52.056;5.296;2023-04-28T11:49:27;15.30;90.70
68235;DHT22;55052;52.056;5.296;2023-04-28T11:51:55;15.30;90.90
68235;DHT22;55052;52.056;5.296;2023-04-28T11:54:24;15.30;90.80
68235;DHT22;55052;52.056;5.296;2023-04-28T11:56:53;15.30;90.80
68235;DHT22;55052;52.056;5.296;2023-04-28T11:59:25;15.30;90.80
68235;DHT22;55052;52.056;5.296;2023-04-28T12:01:58;15.30;90.70
68235;DHT22;55052;52.056;5.296;2023-04-28T12:04:39;15.30;90.70
68235;DHT22;55052;52.056;5.296;2023-04-28T12:07:15;15.30;90.60
68235;DHT22;55052;52.056;5.296;2023-04-28T12:09:43;15.30;90.70
68235;DHT22;55052;52.056;5.296;2023-04-28T12:12:13;15.40;91.00
68235;DHT22;55052;52.056;5.296;2023-04-28T12:15:03;15.40;91.10
68235;DHT22;55052;52.056;5.296;2023-04-28T12:20:01;15.60;90.80
68235;DHT22;55052;52.056;5.296;2023-04-28T12:22:29;15.70;90.70
68235;DHT22;55052;52.056;5.296;2023-04-28T12:25:06;15.70;90.50
68235;DHT22;55052;52.056;5.296;2023-04-28T12:27:35;15.70;90.40
68235;DHT22;55052;52.056;5.296;2023-04-28T12:32:46;15.60;90.20
68235;DHT22;55052;52.056;5.296;2023-04-28T12:35:14;15.60;90.10
68235;DHT22;55052;52.056;5.296;2023-04-28T12:37:44;15.60;90.30
68235;DHT22;55052;52.056;5.296;2023-04-28T12:40:11;15.60;90.30
68235;DHT22;55052;52.056;5.296;2023-04-28T12:42:40;15.60;90.50
68235;DHT22;55052;52.056;5.296;2023-04-28T12:45:07;15.60;90.40
68235;DHT22;55052;52.056;5.296;2023-04-28T12:47:37;15.60;90.40
68235;DHT22;55052;52.056;5.296;2023-04-28T12:50:05;15.60;90.50
68235;DHT22;55052;52.056;5.296;2023-04-28T12:52:33;15.60;90.60
68235;DHT22;55052;52.056;5.296;2023-04-28T12:55:04;15.60;90.80
68235;DHT22;55052;52.056;5.296;2023-04-28T12:57:31;15.70;90.90
68235;DHT22;55052;52.056;5.296;2023-04-28T12:59:58;15.60;90.90
68235;DHT22;55052;52.056;5.296;2023-04-28T13:02:25;15.70;91.00
68235;DHT22;55052;52.056;5.296;2023-04-28T13:04:52;15.70;91.10
68235;DHT22;55052;52.056;5.296;2023-04-28T13:07:19;15.70;90.90
68235;DHT22;55052;52.056;5.296;2023-04-28T13:09:47;15.70;91.00
68235;DHT22;55052;52.056;5.296;2023-04-28T13:12:14;15.60;91.10
68235;DHT22;55052;52.056;5.296;2023-04-28T13:14:41;15.70;91.20
68235;DHT22;55052;52.056;5.296;2023-04-28T13:17:07;15.70;91.30
68235;DHT22;55052;52.056;5.296;2023-04-28T13:19:36;15.70;91.30
68235;DHT22;55052;52.056;5.296;2023-04-28T13:22:02;15.70;91.80
68235;DHT22;55052;52.056;5.296;2023-04-28T13:24:31;15.70;91.40
68235;DHT22;55052;52.056;5.296;2023-04-28T13:27:01;15.70;91.30
68235;DHT22;55052;52.056;5.296;2023-04-28T13:29:29;15.70;91.20
68235;DHT22;55052;52.056;5.296;2023-04-28T13:31:56;15.70;91.30
68235;DHT22;55052;52.056;5.296;2023-04-28T13:34:23;15.70;91.20
68235;DHT22;55052;52.056;5.296;2023-04-28T13:36:51;15.70;91.30
68235;DHT22;55052;52.056;5.296;2023-04-28T13:39:20;15.80;91.20
68235;DHT22;55052;52.056;5.296;2023-04-28T13:41:48;15.70;91.30
68235;DHT22;55052;52.056;5.296;2023-04-28T13:44:15;15.70;91.40
68235;DHT22;55052;52.056;5.296;2023-04-28T13:46:42;15.70;91.20
68235;DHT22;55052;52.056;5.296;2023-04-28T13:49:09;15.70;91.30
68235;DHT22;55052;52.056;5.296;2023-04-28T13:51:36;15.70;91.30
68235;DHT22;55052;52.056;5.296;2023-04-28T13:54:04;15.70;91.40
68235;DHT22;55052;52.056;5.296;2023-04-28T13:56:34;15.70;91.50
68235;DHT22;55052;52.056;5.296;2023-04-28T13:59:02;15.70;91.40
68235;DHT22;55052;52.056;5.296;2023-04-28T14:01:29;15.60;91.50
68235;DHT22;55052;52.056;5.296;2023-04-28T14:03:56;15.60;91.50
68235;DHT22;55052;52.056;5.296;2023-04-28T14:06:24;15.50;91.50
68235;DHT22;55052;52.056;5.296;2023-04-28T14:08:51;15.50;91.80
68235;DHT22;55052;52.056;5.296;2023-04-28T14:11:18;15.50;91.90
68235;DHT22;55052;52.056;5.296;2023-04-28T14:13:45;15.40;92.00
68235;DHT22;55052;52.056;5.296;2023-04-28T14:16:12;15.40;92.10
68235;DHT22;55052;52.056;5.296;2023-04-28T14:18:39;15.40;92.10
68235;DHT22;55052;52.056;5.296;2023-04-28T14:21:06;15.40;92.20
68235;DHT22;55052;52.056;5.296;2023-04-28T14:23:34;15.40;92.30
68235;DHT22;55052;52.056;5.296;2023-04-28T14:26:01;15.30;92.30
68235;DHT22;55052;52.056;5.296;2023-04-28T14:28:28;15.30;92.20
68235;DHT22;55052;52.056;5.296;2023-04-28T14:30:55;15.30;92.30
68235;DHT22;55052;52.056;5.296;2023-04-28T14:33:22;15.20;92.50
68235;DHT22;55052;52.056;5.296;2023-04-28T14:35:49;15.20;92.50
68235;DHT22;55052;52.056;5.296;2023-04-28T14:38:16;15.20;92.50
68235;DHT22;55052;52.056;5.296;2023-04-28T14:40:43;15.20;92.60
68235;DHT22;55052;52.056;5.296;2023-04-28T14:43:10;15.20;92.60
68235;DHT22;55052;52.056;5.296;2023-04-28T14:45:37;15.20;92.70
68235;DHT22;55052;52.056;5.296;2023-04-28T14:48:04;15.20;92.90
68235;DHT22;55052;52.056;5.296;2023-04-28T14:50:33;15.20;92.90
68235;DHT22;55052;52.056;5.296;2023-04-28T14:53:00;15.20;92.80
68235;DHT22;55052;52.056;5.296;2023-04-28T14:55:32;15.20;92.90
68235;DHT22;55052;52.056;5.296;2023-04-28T14:57:59;15.20;92.90
68235;DHT22;55052;52.056;5.296;2023-04-28T15:00:26;15.20;92.90
68235;DHT22;55052;52.056;5.296;2023-04-28T15:02:53;15.20;92.90
68235;DHT22;55052;52.056;5.296;2023-04-28T15:05:20;15.20;92.90
68235;DHT22;55052;52.056;5.296;2023-04-28T15:07:47;15.20;93.00
68235;DHT22;55052;52.056;5.296;2023-04-28T15:10:14;15.20;93.00
68235;DHT22;55052;52.056;5.296;2023-04-28T15:12:41;15.20;93.10
68235;DHT22;55052;52.056;5.296;2023-04-28T15:15:09;15.20;93.10
68235;DHT22;55052;52.056;5.296;2023-04-28T15:17:35;15.20;93.20
68235;DHT22;55052;52.056;5.296;2023-04-28T15:20:03;15.20;93.20
68235;DHT22;55052;52.056;5.296;2023-04-28T15:22:30;15.20;93.20
68235;DHT22;55052;52.056;5.296;2023-04-28T15:24:57;15.10;93.30
68235;DHT22;55052;52.056;5.296;2023-04-28T15:27:24;15.10;93.30
68235;DHT22;55052;52.056;5.296;2023-04-28T15:29:51;15.10;93.50
68235;DHT22;55052;52.056;5.296;2023-04-28T15:32:18;15.10;93.60
68235;DHT22;55052;52.056;5.296;2023-04-28T15:34:45;15.10;93.50
68235;DHT22;55052;52.056;5.296;2023-04-28T15:40:08;15.10;93.70
68235;DHT22;55052;52.056;5.296;2023-04-28T15:42:36;15.00;93.70
68235;DHT22;55052;52.056;5.296;2023-04-28T15:45:04;15.00;93.80
68235;DHT22;55052;52.056;5.296;2023-04-28T15:47:31;15.00;93.90
68235;DHT22;55052;52.056;5.296;2023-04-28T15:49:58;15.00;93.80
68235;DHT22;55052;52.056;5.296;2023-04-28T15:52:26;15.00;94.20
68235;DHT22;55052;52.056;5.296;2023-04-28T15:54:54;15.00;93.80
68235;DHT22;55052;52.056;5.296;2023-04-28T15:57:21;15.00;93.90
68235;DHT22;55052;52.056;5.296;2023-04-28T15:59:48;14.90;93.90
68235;DHT22;55052;52.056;5.296;2023-04-28T16:02:17;15.00;94.00
68235;DHT22;55052;52.056;5.296;2023-04-28T16:04:44;14.90;94.00
68235;DHT22;55052;52.056;5.296;2023-04-28T16:07:12;14.90;94.00